sensor_id;sensor_type;location;lat;lon;timestamp;pressure;altitude;pressure_sealevel;temperature;humidity
54978;BME280;40873;47.522;19.106;2022-12-20T00:01:32;102231.16;;;-1.81;100.00
54978;BME280;40873;47.522;19.106;2022-12-20T00:04:02;102235.59;;;-1.77;100.00
54978;BME280;40873;47.522;19.106;2022-12-20T00:06:30;102243.50;;;-1.70;100.00
54978;BME280;40873;47.522;19.106;2022-12-20T00:08:59;102242.78;;;-1.61;100.00
54978;BME280;40873;47.522;19.106;2022-12-20T00:11:27;102250.63;;;-1.58;100.00
54978;BME280;40873;47.522;19.106;2022-12-20T00:13:55;102254.03;;;-1.60;100.00
54978;BME280;40873;47.522;19.106;2022-12-20T00:16:24;102244.50;;;-1.61;100.00
54978;BME280;40873;47.522;19.106;2022-12-20T00:18:53;102249.78;;;-1.57;100.00
54978;BME280;40873;47.522;19.106;2022-12-20T00:21:21;102254.06;;;-1.59;100.00
54978;BME280;40873;47.522;19.106;2022-12-20T00:23:50;102248.19;;;-1.50;100.00
54978;BME280;40873;47.522;19.106;2022-12-20T00:26:19;102247.25;;;-1.54;100.00
54978;BME280;40873;47.522;19.106;2022-12-20T00:28:46;102248.31;;;-1.46;100.00
54978;BME280;40873;47.522;19.106;2022-12-20T00:31:16;102235.22;;;-1.52;100.00
54978;BME280;40873;47.522;19.106;2022-12-20T00:33:46;102232.72;;;-1.47;100.00
54978;BME280;40873;47.522;19.106;2022-12-20T00:36:14;102233.59;;;-1.47;100.00
54978;BME280;40873;47.522;19.106;2022-12-20T00:38:44;102235.34;;;-1.46;100.00
54978;BME280;40873;47.522;19.106;2022-12-20T00:41:13;102233.63;;;-1.45;100.00
54978;BME280;40873;47.522;19.106;2022-12-20T00:43:41;102231.94;;;-1.43;100.00
54978;BME280;40873;47.522;19.106;2022-12-20T00:46:10;102231.09;;;-1.42;100.00
54978;BME280;40873;47.522;19.106;2022-12-20T00:48:37;102221.75;;;-1.32;100.00
54978;BME280;40873;47.522;19.106;2022-12-20T00:51:08;102211.38;;;-1.34;100.00
54978;BME280;40873;47.522;19.106;2022-12-20T00:53:36;102206.31;;;-1.29;100.00
54978;BME280;40873;47.522;19.106;2022-12-20T00:56:07;102195.88;;;-1.32;100.00
54978;BME280;40873;47.522;19.106;2022-12-20T00:58:36;102186.34;;;-1.35;100.00
54978;BME280;40873;47.522;19.106;2022-12-20T01:01:05;102192.38;;;-1.36;100.00
54978;BME280;40873;47.522;19.106;2022-12-20T01:03:32;102197.66;;;-1.30;100.00
54978;BME280;40873;47.522;19.106;2022-12-20T01:06:01;102200.22;;;-1.31;100.00
54978;BME280;40873;47.522;19.106;2022-12-20T01:08:29;102195.81;;;-1.37;100.00
54978;BME280;40873;47.522;19.106;2022-12-20T01:11:08;102183.00;;;-1.28;100.00
54978;BME280;40873;47.522;19.106;2022-12-20T01:13:38;102195.97;;;-1.26;100.00
54978;BME280;40873;47.522;19.106;2022-12-20T01:16:12;102190.78;;;-1.28;100.00
54978;BME280;40873;47.522;19.106;2022-12-20T01:18:39;102192.34;;;-1.38;100.00
54978;BME280;40873;47.522;19.106;2022-12-20T01:21:09;102194.09;;;-1.36;100.00
54978;BME280;40873;47.522;19.106;2022-12-20T01:23:37;102198.00;;;-1.10;100.00
54978;BME280;40873;47.522;19.106;2022-12-20T01:26:06;102193.41;;;-1.26;100.00
54978;BME280;40873;47.522;19.106;2022-12-20T01:28:35;102187.22;;;-1.33;100.00
54978;BME280;40873;47.522;19.106;2022-12-20T01:31:07;102179.59;;;-1.25;100.00
54978;BME280;40873;47.522;19.106;2022-12-20T01:33:34;102175.25;;;-1.28;100.00
54978;BME280;40873;47.522;19.106;2022-12-20T01:36:04;102176.00;;;-1.33;100.00
54978;BME280;40873;47.522;19.106;2022-12-20T01:38:32;102165.63;;;-1.35;100.00
54978;BME280;40873;47.522;19.106;2022-12-20T01:41:00;102163.88;;;-1.36;100.00
54978;BME280;40873;47.522;19.106;2022-12-20T01:46:16;102141.59;;;-1.26;100.00
54978;BME280;40873;47.522;19.106;2022-12-20T01:48:50;102148.41;;;-1.33;100.00
54978;BME280;40873;47.522;19.106;2022-12-20T01:51:18;102136.38;;;-1.29;100.00
54978;BME280;40873;47.522;19.106;2022-12-20T01:53:47;102135.53;;;-1.28;100.00
54978;BME280;40873;47.522;19.106;2022-12-20T01:56:17;102126.19;;;-1.19;100.00
54978;BME280;40873;47.522;19.106;2022-12-20T01:58:45;102123.41;;;-1.31;100.00
54978;BME280;40873;47.522;19.106;2022-12-20T02:01:14;102120.13;;;-1.21;100.00
54978;BME280;40873;47.522;19.106;2022-12-20T02:03:42;102115.69;;;-1.28;100.00
54978;BME280;40873;47.522;19.106;2022-12-20T02:06:20;102099.38;;;-1.22;100.00
54978;BME280;40873;47.522;19.106;2022-12-20T02:08:49;102098.63;;;-1.15;100.00
54978;BME280;40873;47.522;19.106;2022-12-20T02:14:13;102101.88;;;-1.28;100.00
54978;BME280;40873;47.522;19.106;2022-12-20T02:16:48;102093.22;;;-1.30;100.00
54978;BME280;40873;47.522;19.106;2022-12-20T02:25:13;102100.00;;;-1.37;100.00
54978;BME280;40873;47.522;19.106;2022-12-20T02:30:27;102106.84;;;-1.41;100.00
54978;BME280;40873;47.522;19.106;2022-12-20T02:33:04;102103.38;;;-1.43;100.00
54978;BME280;40873;47.522;19.106;2022-12-20T02:35:35;102101.66;;;-1.41;100.00
54978;BME280;40873;47.522;19.106;2022-12-20T02:38:23;102102.50;;;-1.42;100.00
54978;BME280;40873;47.522;19.106;2022-12-20T02:40:54;102102.50;;;-1.43;100.00
54978;BME280;40873;47.522;19.106;2022-12-20T02:43:24;102114.56;;;-1.44;100.00
54978;BME280;40873;47.522;19.106;2022-12-20T02:46:12;102105.22;;;-1.35;100.00
54978;BME280;40873;47.522;19.106;2022-12-20T02:48:40;102107.16;;;-1.22;100.00
54978;BME280;40873;47.522;19.106;2022-12-20T02:51:09;102104.47;;;-1.28;100.00
54978;BME280;40873;47.522;19.106;2022-12-20T02:53:37;102096.59;;;-1.33;100.00
54978;BME280;40873;47.522;19.106;2022-12-20T02:56:21;102088.25;;;-1.18;100.00
54978;BME280;40873;47.522;19.106;2022-12-20T02:58:54;102082.16;;;-1.20;100.00
54978;BME280;40873;47.522;19.106;2022-12-20T03:01:30;102067.56;;;-1.15;100.00
54978;BME280;40873;47.522;19.106;2022-12-20T03:04:00;102064.13;;;-1.14;100.00
54978;BME280;40873;47.522;19.106;2022-12-20T03:06:27;102063.44;;;-1.01;100.00
54978;BME280;40873;47.522;19.106;2022-12-20T03:08:56;102062.41;;;-1.12;100.00
54978;BME280;40873;47.522;19.106;2022-12-20T03:11:23;102058.94;;;-1.14;100.00
54978;BME280;40873;47.522;19.106;2022-12-20T03:13:50;102056.44;;;-1.08;100.00
54978;BME280;40873;47.522;19.106;2022-12-20T03:16:17;102052.09;;;-1.09;100.00
54978;BME280;40873;47.522;19.106;2022-12-20T03:18:44;102049.63;;;-1.03;100.00
54978;BME280;40873;47.522;19.106;2022-12-20T03:21:11;102048.66;;;-1.09;100.00
54978;BME280;40873;47.522;19.106;2022-12-20T03:23:38;102048.69;;;-1.06;100.00
54978;BME280;40873;47.522;19.106;2022-12-20T03:26:05;102048.53;;;-1.17;100.00
54978;BME280;40873;47.522;19.106;2022-12-20T03:28:32;102044.28;;;-1.12;100.00
54978;BME280;40873;47.522;19.106;2022-12-20T03:30:59;102038.28;;;-1.11;100.00
54978;BME280;40873;47.522;19.106;2022-12-20T03:33:26;102041.56;;;-1.21;100.00
54978;BME280;40873;47.522;19.106;2022-12-20T03:35:53;102047.59;;;-1.21;100.00
54978;BME280;40873;47.522;19.106;2022-12-20T03:38:20;102052.75;;;-1.24;100.00
54978;BME280;40873;47.522;19.106;2022-12-20T03:40:47;102051.91;;;-1.21;100.00
54978;BME280;40873;47.522;19.106;2022-12-20T03:43:14;102045.78;;;-1.26;100.00
54978;BME280;40873;47.522;19.106;2022-12-20T03:45:41;102050.19;;;-1.22;100.00
54978;BME280;40873;47.522;19.106;2022-12-20T03:48:08;102055.28;;;-1.27;100.00
54978;BME280;40873;47.522;19.106;2022-12-20T03:50:35;102045.75;;;-1.29;100.00
54978;BME280;40873;47.522;19.106;2022-12-20T03:53:03;102036.19;;;-1.33;100.00
54978;BME280;40873;47.522;19.106;2022-12-20T03:55:29;102044.03;;;-1.29;100.00
54978;BME280;40873;47.522;19.106;2022-12-20T03:57:57;102044.94;;;-1.25;100.00
54978;BME280;40873;47.522;19.106;2022-12-20T04:00:23;102049.28;;;-1.24;100.00
54978;BME280;40873;47.522;19.106;2022-12-20T04:02:51;102037.00;;;-1.38;100.00
54978;BME280;40873;47.522;19.106;2022-12-20T04:05:18;102033.59;;;-1.33;100.00
54978;BME280;40873;47.522;19.106;2022-12-20T04:07:45;102029.28;;;-1.33;100.00
54978;BME280;40873;47.522;19.106;2022-12-20T04:10:12;102023.34;;;-1.27;100.00
54978;BME280;40873;47.522;19.106;2022-12-20T04:12:39;102022.22;;;-1.45;100.00
54978;BME280;40873;47.522;19.106;2022-12-20T04:15:06;102024.03;;;-1.39;100.00
54978;BME280;40873;47.522;19.106;2022-12-20T04:17:34;102020.66;;;-1.33;100.00
54978;BME280;40873;47.522;19.106;2022-12-20T04:20:00;101999.06;;;-1.34;100.00
54978;BME280;40873;47.522;19.106;2022-12-20T04:22:48;102000.88;;;-1.30;100.00
54978;BME280;40873;47.522;19.106;2022-12-20T04:25:17;101996.56;;;-1.28;100.00
54978;BME280;40873;47.522;19.106;2022-12-20T04:27:45;102000.84;;;-1.31;100.00
54978;BME280;40873;47.522;19.106;2022-12-20T04:30:12;101998.94;;;-1.45;100.00
54978;BME280;40873;47.522;19.106;2022-12-20T04:32:39;101986.13;;;-1.34;100.00
54978;BME280;40873;47.522;19.106;2022-12-20T04:35:06;101992.91;;;-1.42;100.00
54978;BME280;40873;47.522;19.106;2022-12-20T04:37:34;101993.88;;;-1.37;100.00
54978;BME280;40873;47.522;19.106;2022-12-20T04:40:00;101999.81;;;-1.41;100.00
54978;BME280;40873;47.522;19.106;2022-12-20T04:42:27;102000.03;;;-1.27;100.00
54978;BME280;40873;47.522;19.106;2022-12-20T04:44:54;102008.75;;;-1.21;100.00
54978;BME280;40873;47.522;19.106;2022-12-20T04:47:21;101992.16;;;-1.33;100.00
54978;BME280;40873;47.522;19.106;2022-12-20T04:49:48;102000.69;;;-1.41;100.00
54978;BME280;40873;47.522;19.106;2022-12-20T04:52:15;102004.13;;;-1.42;100.00
54978;BME280;40873;47.522;19.106;2022-12-20T04:55:00;102015.44;;;-1.36;100.00
54978;BME280;40873;47.522;19.106;2022-12-20T04:57:28;102007.00;;;-1.25;100.00
54978;BME280;40873;47.522;19.106;2022-12-20T04:59:54;102011.34;;;-1.22;100.00
54978;BME280;40873;47.522;19.106;2022-12-20T05:02:21;102017.16;;;-1.37;100.00
54978;BME280;40873;47.522;19.106;2022-12-20T05:04:48;102020.69;;;-1.32;100.00
54978;BME280;40873;47.522;19.106;2022-12-20T05:07:16;102022.34;;;-1.35;100.00
54978;BME280;40873;47.522;19.106;2022-12-20T05:09:42;102025.03;;;-1.31;100.00
54978;BME280;40873;47.522;19.106;2022-12-20T05:12:09;102025.19;;;-1.19;100.00
54978;BME280;40873;47.522;19.106;2022-12-20T05:14:36;102023.44;;;-1.20;100.00
54978;BME280;40873;47.522;19.106;2022-12-20T05:17:03;102027.66;;;-1.26;100.00
54978;BME280;40873;47.522;19.106;2022-12-20T05:19:30;102034.56;;;-1.27;100.00
54978;BME280;40873;47.522;19.106;2022-12-20T05:21:57;102025.91;;;-1.29;100.00
54978;BME280;40873;47.522;19.106;2022-12-20T05:24:43;102031.00;;;-1.33;100.00
54978;BME280;40873;47.522;19.106;2022-12-20T05:27:28;102035.41;;;-1.29;100.00
54978;BME280;40873;47.522;19.106;2022-12-20T05:29:56;102035.31;;;-1.34;100.00
54978;BME280;40873;47.522;19.106;2022-12-20T05:32:23;102031.00;;;-1.33;100.00
54978;BME280;40873;47.522;19.106;2022-12-20T05:34:50;102044.13;;;-1.24;100.00
54978;BME280;40873;47.522;19.106;2022-12-20T05:37:17;102028.53;;;-1.26;100.00
54978;BME280;40873;47.522;19.106;2022-12-20T05:39:43;102021.47;;;-1.38;100.00
54978;BME280;40873;47.522;19.106;2022-12-20T05:42:11;102030.16;;;-1.32;100.00
54978;BME280;40873;47.522;19.106;2022-12-20T05:44:37;102034.53;;;-1.30;100.00
54978;BME280;40873;47.522;19.106;2022-12-20T05:47:04;102027.56;;;-1.32;100.00
54978;BME280;40873;47.522;19.106;2022-12-20T05:49:31;102030.34;;;-1.22;100.00
54978;BME280;40873;47.522;19.106;2022-12-20T05:52:00;102026.88;;;-1.22;100.00
54978;BME280;40873;47.522;19.106;2022-12-20T05:54:27;102033.59;;;-1.33;100.00
54978;BME280;40873;47.522;19.106;2022-12-20T05:56:54;102021.34;;;-1.45;100.00
54978;BME280;40873;47.522;19.106;2022-12-20T05:59:21;102016.13;;;-1.48;100.00
54978;BME280;40873;47.522;19.106;2022-12-20T06:01:48;102012.66;;;-1.49;100.00
54978;BME280;40873;47.522;19.106;2022-12-20T06:04:15;102011.88;;;-1.45;100.00
54978;BME280;40873;47.522;19.106;2022-12-20T06:06:42;102006.66;;;-1.46;100.00
54978;BME280;40873;47.522;19.106;2022-12-20T06:09:09;101999.69;;;-1.52;100.00
54978;BME280;40873;47.522;19.106;2022-12-20T06:11:36;101987.59;;;-1.51;100.00
54978;BME280;40873;47.522;19.106;2022-12-20T06:14:03;101988.38;;;-1.58;100.00
54978;BME280;40873;47.522;19.106;2022-12-20T06:16:30;101985.75;;;-1.60;100.00
54978;BME280;40873;47.522;19.106;2022-12-20T06:18:57;101978.13;;;-1.51;100.00
54978;BME280;40873;47.522;19.106;2022-12-20T06:21:25;101976.41;;;-1.50;100.00
54978;BME280;40873;47.522;19.106;2022-12-20T06:23:54;101987.72;;;-1.44;100.00
54978;BME280;40873;47.522;19.106;2022-12-20T06:26:21;101985.91;;;-1.49;100.00
54978;BME280;40873;47.522;19.106;2022-12-20T06:28:50;101987.59;;;-1.51;100.00
54978;BME280;40873;47.522;19.106;2022-12-20T06:31:20;101980.84;;;-1.40;100.00
54978;BME280;40873;47.522;19.106;2022-12-20T06:33:47;101988.47;;;-1.51;100.00
54978;BME280;40873;47.522;19.106;2022-12-20T06:36:14;101970.88;;;-1.13;100.00
54978;BME280;40873;47.522;19.106;2022-12-20T06:38:41;101972.84;;;-0.96;100.00
54978;BME280;40873;47.522;19.106;2022-12-20T06:41:08;101976.25;;;-0.99;100.00
54978;BME280;40873;47.522;19.106;2022-12-20T06:43:35;101973.63;;;-1.03;100.00
54978;BME280;40873;47.522;19.106;2022-12-20T06:46:02;101964.84;;;-1.12;100.00
54978;BME280;40873;47.522;19.106;2022-12-20T06:48:29;101967.41;;;-1.16;100.00
54978;BME280;40873;47.522;19.106;2022-12-20T06:50:56;101970.97;;;-1.08;100.00
54978;BME280;40873;47.522;19.106;2022-12-20T06:53:23;101969.22;;;-1.09;100.00
54978;BME280;40873;47.522;19.106;2022-12-20T06:55:51;101960.66;;;-1.03;100.00
54978;BME280;40873;47.522;19.106;2022-12-20T06:58:18;101954.47;;;-1.15;100.00
54978;BME280;40873;47.522;19.106;2022-12-20T07:00:46;101945.53;;;-1.36;100.00
54978;BME280;40873;47.522;19.106;2022-12-20T07:03:14;101948.31;;;-1.24;100.00
54978;BME280;40873;47.522;19.106;2022-12-20T07:05:41;101952.47;;;-1.32;100.00
54978;BME280;40873;47.522;19.106;2022-12-20T07:08:08;101952.63;;;-1.25;100.00
54978;BME280;40873;47.522;19.106;2022-12-20T07:10:36;101948.22;;;-1.30;100.00
54978;BME280;40873;47.522;19.106;2022-12-20T07:13:03;101934.41;;;-1.29;100.00
54978;BME280;40873;47.522;19.106;2022-12-20T07:15:30;101944.00;;;-1.22;100.00
54978;BME280;40873;47.522;19.106;2022-12-20T07:17:58;101943.16;;;-1.21;100.00
54978;BME280;40873;47.522;19.106;2022-12-20T07:20:25;101951.75;;;-1.24;100.00
54978;BME280;40873;47.522;19.106;2022-12-20T07:22:52;101957.84;;;-1.20;100.00
54978;BME280;40873;47.522;19.106;2022-12-20T07:25:19;101957.94;;;-1.13;100.00
54978;BME280;40873;47.522;19.106;2022-12-20T07:27:47;101959.56;;;-1.19;100.00
54978;BME280;40873;47.522;19.106;2022-12-20T07:30:17;101957.91;;;-1.16;100.00
54978;BME280;40873;47.522;19.106;2022-12-20T07:32:44;101971.81;;;-1.07;100.00
54978;BME280;40873;47.522;19.106;2022-12-20T07:35:13;101976.13;;;-1.11;100.00
54978;BME280;40873;47.522;19.106;2022-12-20T07:37:40;101968.56;;;-0.91;100.00
54978;BME280;40873;47.522;19.106;2022-12-20T07:40:09;101964.22;;;-0.97;100.00
54978;BME280;40873;47.522;19.106;2022-12-20T07:42:36;101958.16;;;-0.97;100.00
54978;BME280;40873;47.522;19.106;2022-12-20T07:45:13;101963.34;;;-0.96;100.00
54978;BME280;40873;47.522;19.106;2022-12-20T07:47:41;101952.41;;;-0.72;100.00
54978;BME280;40873;47.522;19.106;2022-12-20T07:50:08;101973.13;;;-0.75;100.00
54978;BME280;40873;47.522;19.106;2022-12-20T07:52:35;101965.28;;;-0.79;100.00
54978;BME280;40873;47.522;19.106;2022-12-20T07:55:06;101972.28;;;-0.72;100.00
54978;BME280;40873;47.522;19.106;2022-12-20T07:57:40;101968.03;;;-0.66;100.00
54978;BME280;40873;47.522;19.106;2022-12-20T08:00:10;101965.31;;;-0.76;100.00
54978;BME280;40873;47.522;19.106;2022-12-20T08:02:43;101974.06;;;-0.68;100.00
54978;BME280;40873;47.522;19.106;2022-12-20T08:05:13;101968.09;;;-0.60;100.00
54978;BME280;40873;47.522;19.106;2022-12-20T08:07:41;101955.16;;;-0.58;100.00
54978;BME280;40873;47.522;19.106;2022-12-20T08:10:10;101943.91;;;-0.60;100.00
54978;BME280;40873;47.522;19.106;2022-12-20T08:12:40;101936.84;;;-0.72;100.00
54978;BME280;40873;47.522;19.106;2022-12-20T08:15:08;101931.59;;;-0.79;100.00
54978;BME280;40873;47.522;19.106;2022-12-20T08:17:34;101926.50;;;-0.72;100.00
54978;BME280;40873;47.522;19.106;2022-12-20T08:20:02;101924.84;;;-0.65;100.00
54978;BME280;40873;47.522;19.106;2022-12-20T08:22:31;101918.00;;;-0.57;100.00
54978;BME280;40873;47.522;19.106;2022-12-20T08:24:59;101922.38;;;-0.54;100.00
54978;BME280;40873;47.522;19.106;2022-12-20T08:27:26;101923.25;;;-0.49;100.00
54978;BME280;40873;47.522;19.106;2022-12-20T08:29:53;101917.13;;;-0.61;100.00
54978;BME280;40873;47.522;19.106;2022-12-20T08:32:20;101919.69;;;-0.62;100.00
54978;BME280;40873;47.522;19.106;2022-12-20T08:34:47;101916.31;;;-0.55;100.00
54978;BME280;40873;47.522;19.106;2022-12-20T08:37:17;101928.44;;;-0.52;100.00
54978;BME280;40873;47.522;19.106;2022-12-20T08:39:44;101918.25;;;-0.33;100.00
54978;BME280;40873;47.522;19.106;2022-12-20T08:42:12;101914.81;;;-0.29;100.00
54978;BME280;40873;47.522;19.106;2022-12-20T08:44:39;101917.41;;;-0.29;100.00
54978;BME280;40873;47.522;19.106;2022-12-20T08:47:06;101914.13;;;-0.09;100.00
54978;BME280;40873;47.522;19.106;2022-12-20T08:49:33;101920.97;;;-0.19;100.00
54978;BME280;40873;47.522;19.106;2022-12-20T08:52:00;101920.25;;;-0.01;100.00
54978;BME280;40873;47.522;19.106;2022-12-20T08:54:28;101903.88;;;0.06;100.00
54978;BME280;40873;47.522;19.106;2022-12-20T08:56:54;101901.31;;;0.08;99.61
54978;BME280;40873;47.522;19.106;2022-12-20T08:59:22;101907.31;;;0.01;99.89
54978;BME280;40873;47.522;19.106;2022-12-20T09:01:48;101899.59;;;0.11;99.05
54978;BME280;40873;47.522;19.106;2022-12-20T09:04:16;101916.88;;;0.11;99.28
54978;BME280;40873;47.522;19.106;2022-12-20T09:06:43;101918.63;;;0.10;98.37
54978;BME280;40873;47.522;19.106;2022-12-20T09:09:10;101911.75;;;0.15;98.15
54978;BME280;40873;47.522;19.106;2022-12-20T09:11:37;101908.38;;;0.29;98.46
54978;BME280;40873;47.522;19.106;2022-12-20T09:14:04;101904.94;;;0.31;98.01
54978;BME280;40873;47.522;19.106;2022-12-20T09:16:31;101911.06;;;0.47;96.37
54978;BME280;40873;47.522;19.106;2022-12-20T09:19:00;101906.81;;;0.60;95.72
54978;BME280;40873;47.522;19.106;2022-12-20T09:21:32;101911.22;;;0.74;95.39
54978;BME280;40873;47.522;19.106;2022-12-20T09:24:00;101923.41;;;0.85;94.79
54978;BME280;40873;47.522;19.106;2022-12-20T09:26:26;101901.75;;;0.90;92.84
54978;BME280;40873;47.522;19.106;2022-12-20T09:28:54;101893.19;;;1.11;93.28
54978;BME280;40873;47.522;19.106;2022-12-20T09:31:22;101893.25;;;1.34;90.61
54978;BME280;40873;47.522;19.106;2022-12-20T09:33:54;101893.28;;;1.58;88.32
54978;BME280;40873;47.522;19.106;2022-12-20T09:36:22;101890.66;;;1.34;88.61
54978;BME280;40873;47.522;19.106;2022-12-20T09:38:50;101881.94;;;1.24;89.40
54978;BME280;40873;47.522;19.106;2022-12-20T09:43:52;101864.69;;;1.71;87.70
54978;BME280;40873;47.522;19.106;2022-12-20T09:46:21;101865.56;;;1.89;86.02
54978;BME280;40873;47.522;19.106;2022-12-20T09:48:49;101856.88;;;2.00;85.39
54978;BME280;40873;47.522;19.106;2022-12-20T09:54:21;101859.41;;;2.38;83.78
54978;BME280;40873;47.522;19.106;2022-12-20T09:59:40;101859.38;;;2.53;82.27
54978;BME280;40873;47.522;19.106;2022-12-20T10:02:19;101851.50;;;2.62;82.27
54978;BME280;40873;47.522;19.106;2022-12-20T10:05:27;101843.63;;;2.78;81.34
54978;BME280;40873;47.522;19.106;2022-12-20T10:10:56;101840.97;;;2.88;79.45
54978;BME280;40873;47.522;19.106;2022-12-20T10:16:39;101844.41;;;2.98;79.68
54978;BME280;40873;47.522;19.106;2022-12-20T10:22:13;101822.16;;;1.99;81.92
54978;BME280;40873;47.522;19.106;2022-12-20T10:25:12;101817.78;;;2.15;81.40
54978;BME280;40873;47.522;19.106;2022-12-20T10:27:45;101806.53;;;1.95;83.85
54978;BME280;40873;47.522;19.106;2022-12-20T10:30:18;101807.41;;;2.00;82.91
54978;BME280;40873;47.522;19.106;2022-12-20T10:32:48;101807.34;;;2.30;82.12
54978;BME280;40873;47.522;19.106;2022-12-20T10:35:23;101803.75;;;2.65;81.63
54978;BME280;40873;47.522;19.106;2022-12-20T10:40:36;101769.47;;;3.24;79.27
54978;BME280;40873;47.522;19.106;2022-12-20T10:43:25;101777.09;;;3.52;77.41
54978;BME280;40873;47.522;19.106;2022-12-20T10:46:01;101780.50;;;3.62;76.51
54978;BME280;40873;47.522;19.106;2022-12-20T10:48:32;101770.44;;;4.11;74.96
54978;BME280;40873;47.522;19.106;2022-12-20T10:51:18;101775.41;;;4.32;73.03
54978;BME280;40873;47.522;19.106;2022-12-20T10:54:01;101773.28;;;3.87;73.64
54978;BME280;40873;47.522;19.106;2022-12-20T10:56:29;101767.22;;;3.86;73.17
54978;BME280;40873;47.522;19.106;2022-12-20T11:01:44;101747.34;;;2.52;78.36
54978;BME280;40873;47.522;19.106;2022-12-20T11:04:33;101749.22;;;2.17;81.06
54978;BME280;40873;47.522;19.106;2022-12-20T11:10:18;101748.47;;;1.83;82.34
54978;BME280;40873;47.522;19.106;2022-12-20T11:13:00;101731.97;;;1.83;83.10
54978;BME280;40873;47.522;19.106;2022-12-20T11:15:47;101733.75;;;1.67;83.64
54978;BME280;40873;47.522;19.106;2022-12-20T11:18:42;101734.44;;;2.26;82.44
54978;BME280;40873;47.522;19.106;2022-12-20T11:21:39;101732.69;;;2.28;81.61
54978;BME280;40873;47.522;19.106;2022-12-20T11:24:32;101738.88;;;1.99;82.09
54978;BME280;40873;47.522;19.106;2022-12-20T11:38:22;101708.44;;;2.15;81.72
54978;BME280;40873;47.522;19.106;2022-12-20T11:41:04;101697.94;;;2.35;81.78
54978;BME280;40873;47.522;19.106;2022-12-20T11:49:17;101692.59;;;2.61;80.39
54978;BME280;40873;47.522;19.106;2022-12-20T11:57:56;101696.09;;;2.58;79.78
54978;BME280;40873;47.522;19.106;2022-12-20T12:01:02;101685.53;;;2.80;79.33
54978;BME280;40873;47.522;19.106;2022-12-20T12:03:35;101683.63;;;3.00;78.47
54978;BME280;40873;47.522;19.106;2022-12-20T12:06:10;101679.31;;;2.94;78.45
54978;BME280;40873;47.522;19.106;2022-12-20T12:08:54;101675.03;;;2.89;78.71
54978;BME280;40873;47.522;19.106;2022-12-20T12:11:29;101673.94;;;3.13;77.89
54978;BME280;40873;47.522;19.106;2022-12-20T12:17:15;101670.38;;;3.24;77.18
54978;BME280;40873;47.522;19.106;2022-12-20T12:19:45;101668.75;;;3.14;77.55
54978;BME280;40873;47.522;19.106;2022-12-20T12:22:21;101665.50;;;2.83;78.65
54978;BME280;40873;47.522;19.106;2022-12-20T12:24:55;101668.88;;;2.97;78.46
54978;BME280;40873;47.522;19.106;2022-12-20T12:27:27;101653.38;;;2.79;79.00
54978;BME280;40873;47.522;19.106;2022-12-20T12:29:55;101655.97;;;2.81;79.26
54978;BME280;40873;47.522;19.106;2022-12-20T12:32:40;101653.41;;;2.74;78.72
54978;BME280;40873;47.522;19.106;2022-12-20T12:43:55;101633.38;;;2.78;79.48
54978;BME280;40873;47.522;19.106;2022-12-20T12:46:28;101629.97;;;2.73;79.18
54978;BME280;40873;47.522;19.106;2022-12-20T12:49:01;101630.91;;;2.63;79.95
54978;BME280;40873;47.522;19.106;2022-12-20T12:51:35;101633.53;;;2.57;80.25
54978;BME280;40873;47.522;19.106;2022-12-20T12:54:18;101636.09;;;2.67;80.35
54978;BME280;40873;47.522;19.106;2022-12-20T12:56:48;101635.22;;;2.64;80.01
54978;BME280;40873;47.522;19.106;2022-12-20T13:04:54;101629.16;;;2.63;81.40
54978;BME280;40873;47.522;19.106;2022-12-20T13:09:59;101629.06;;;2.77;81.05
54978;BME280;40873;47.522;19.106;2022-12-20T13:17:53;101614.34;;;2.70;80.27
54978;BME280;40873;47.522;19.106;2022-12-20T13:20:25;101619.69;;;2.53;81.22
54978;BME280;40873;47.522;19.106;2022-12-20T13:25:37;101612.78;;;2.51;81.19
54978;BME280;40873;47.522;19.106;2022-12-20T13:33:47;101606.66;;;2.58;81.38
54978;BME280;40873;47.522;19.106;2022-12-20T13:41:20;101599.75;;;2.51;82.11
54978;BME280;40873;47.522;19.106;2022-12-20T13:43:57;101598.81;;;2.56;81.44
54978;BME280;40873;47.522;19.106;2022-12-20T13:46:35;101604.94;;;2.54;81.80
54978;BME280;40873;47.522;19.106;2022-12-20T13:49:10;101608.28;;;2.68;81.47
54978;BME280;40873;47.522;19.106;2022-12-20T13:51:38;101601.53;;;2.42;81.66
54978;BME280;40873;47.522;19.106;2022-12-20T13:54:16;101594.59;;;2.44;81.83
54978;BME280;40873;47.522;19.106;2022-12-20T13:56:53;101589.38;;;2.44;82.22
54978;BME280;40873;47.522;19.106;2022-12-20T13:59:26;101587.66;;;2.40;82.90
54978;BME280;40873;47.522;19.106;2022-12-20T14:01:57;101582.50;;;2.33;82.57
54978;BME280;40873;47.522;19.106;2022-12-20T14:04:27;101574.72;;;2.28;82.47
54978;BME280;40873;47.522;19.106;2022-12-20T14:07:04;101573.81;;;2.29;82.51
54978;BME280;40873;47.522;19.106;2022-12-20T14:09:34;101573.88;;;2.25;83.05
54978;BME280;40873;47.522;19.106;2022-12-20T14:12:11;101566.94;;;2.20;85.99
54978;BME280;40873;47.522;19.106;2022-12-20T14:14:43;101559.16;;;2.17;87.89
54978;BME280;40873;47.522;19.106;2022-12-20T14:17:21;101555.75;;;2.09;89.13
54978;BME280;40873;47.522;19.106;2022-12-20T14:20:23;101556.66;;;2.04;90.10
54978;BME280;40873;47.522;19.106;2022-12-20T14:23:00;101563.69;;;1.85;91.51
54978;BME280;40873;47.522;19.106;2022-12-20T14:28:35;101564.59;;;1.76;92.10
54978;BME280;40873;47.522;19.106;2022-12-20T14:31:03;101564.69;;;1.61;93.08
54978;BME280;40873;47.522;19.106;2022-12-20T14:33:39;101561.22;;;1.56;93.45
54978;BME280;40873;47.522;19.106;2022-12-20T14:36:18;101559.50;;;1.46;93.99
54978;BME280;40873;47.522;19.106;2022-12-20T14:38:48;101554.38;;;1.40;94.58